sensor_id;sensor_type;location;lat;lon;timestamp;pressure;altitude;pressure_sealevel;temperature;humidity
78986;BME280;68384;55.750;48.746;2023-07-20T00:00:26;97379.78;;;13.99;84.50
78986;BME280;68384;55.750;48.746;2023-07-20T00:01:29;97380.72;;;13.95;84.58
78986;BME280;68384;55.750;48.746;2023-07-20T00:02:33;97377.28;;;13.93;84.50
78986;BME280;68384;55.750;48.746;2023-07-20T00:03:36;97384.31;;;13.89;84.53
78986;BME280;68384;55.750;48.746;2023-07-20T00:04:40;97384.38;;;13.86;84.69
78986;BME280;68384;55.750;48.746;2023-07-20T00:05:43;97385.22;;;13.87;84.91
78986;BME280;68384;55.750;48.746;2023-07-20T00:06:45;97380.00;;;13.87;84.98
78986;BME280;68384;55.750;48.746;2023-07-20T00:07:50;97381.78;;;13.86;84.94
78986;BME280;68384;55.750;48.746;2023-07-20T00:08:54;97384.38;;;13.86;84.55
78986;BME280;68384;55.750;48.746;2023-07-20T00:09:58;97380.06;;;13.85;84.78
78986;BME280;68384;55.750;48.746;2023-07-20T00:11:02;97381.78;;;13.84;84.81
78986;BME280;68384;55.750;48.746;2023-07-20T00:12:07;97386.94;;;13.88;84.90
78986;BME280;68384;55.750;48.746;2023-07-20T00:13:11;97390.41;;;13.88;84.69
78986;BME280;68384;55.750;48.746;2023-07-20T00:14:15;97389.56;;;13.88;84.60
78986;BME280;68384;55.750;48.746;2023-07-20T00:15:18;97379.94;;;13.90;84.57
78986;BME280;68384;55.750;48.746;2023-07-20T00:16:22;97381.84;;;13.83;84.47
78986;BME280;68384;55.750;48.746;2023-07-20T00:17:25;97386.06;;;13.89;84.40
78986;BME280;68384;55.750;48.746;2023-07-20T00:18:29;97393.81;;;13.92;84.30
78986;BME280;68384;55.750;48.746;2023-07-20T00:19:32;97392.06;;;13.92;84.11
78986;BME280;68384;55.750;48.746;2023-07-20T00:20:37;97392.09;;;13.91;83.90
78986;BME280;68384;55.750;48.746;2023-07-20T00:21:39;97397.31;;;13.91;83.91
78986;BME280;68384;55.750;48.746;2023-07-20T00:22:45;97393.84;;;13.90;83.67
78986;BME280;68384;55.750;48.746;2023-07-20T00:23:47;97392.06;;;13.92;83.86
78986;BME280;68384;55.750;48.746;2023-07-20T00:24:51;97391.22;;;13.92;83.92
78986;BME280;68384;55.750;48.746;2023-07-20T00:25:55;97405.06;;;13.94;83.69
78986;BME280;68384;55.750;48.746;2023-07-20T00:27:01;97398.06;;;13.96;83.57
78986;BME280;68384;55.750;48.746;2023-07-20T00:28:05;97399.81;;;13.95;83.36
78986;BME280;68384;55.750;48.746;2023-07-20T00:29:09;97400.72;;;13.93;83.19
78986;BME280;68384;55.750;48.746;2023-07-20T00:30:12;97386.94;;;13.88;83.17
78986;BME280;68384;55.750;48.746;2023-07-20T00:31:18;97398.19;;;13.90;83.46
78986;BME280;68384;55.750;48.746;2023-07-20T00:32:21;97395.59;;;13.90;83.30
78986;BME280;68384;55.750;48.746;2023-07-20T00:33:25;97401.63;;;13.92;83.12
78986;BME280;68384;55.750;48.746;2023-07-20T00:34:28;97399.91;;;13.91;82.95
78986;BME280;68384;55.750;48.746;2023-07-20T00:35:32;97409.41;;;13.93;83.02
78986;BME280;68384;55.750;48.746;2023-07-20T00:36:35;97398.06;;;13.96;83.29
78986;BME280;68384;55.750;48.746;2023-07-20T00:37:39;97400.72;;;13.94;83.21
78986;BME280;68384;55.750;48.746;2023-07-20T00:38:42;97395.44;;;13.97;83.04
78986;BME280;68384;55.750;48.746;2023-07-20T00:39:46;97397.22;;;13.95;82.95
78986;BME280;68384;55.750;48.746;2023-07-20T00:40:49;97400.66;;;13.96;82.93
78986;BME280;68384;55.750;48.746;2023-07-20T00:41:53;97404.16;;;13.95;83.17
78986;BME280;68384;55.750;48.746;2023-07-20T00:42:57;97403.34;;;13.93;83.24
78986;BME280;68384;55.750;48.746;2023-07-20T00:44:01;97400.66;;;13.96;83.64
78986;BME280;68384;55.750;48.746;2023-07-20T00:45:05;97403.31;;;13.94;83.71
78986;BME280;68384;55.750;48.746;2023-07-20T00:46:10;97400.66;;;13.96;83.72
78986;BME280;68384;55.750;48.746;2023-07-20T00:47:13;97410.34;;;13.91;83.92
78986;BME280;68384;55.750;48.746;2023-07-20T00:48:18;97399.97;;;13.88;84.08
78986;BME280;68384;55.750;48.746;2023-07-20T00:49:21;97409.53;;;13.87;83.92
78986;BME280;68384;55.750;48.746;2023-07-20T00:50:26;97404.31;;;13.89;83.99
78986;BME280;68384;55.750;48.746;2023-07-20T00:51:30;97408.66;;;13.88;84.09
78986;BME280;68384;55.750;48.746;2023-07-20T00:52:34;97401.66;;;13.90;84.09
78986;BME280;68384;55.750;48.746;2023-07-20T00:53:38;97407.81;;;13.86;83.86
78986;BME280;68384;55.750;48.746;2023-07-20T00:54:41;97404.38;;;13.84;83.87
78986;BME280;68384;55.750;48.746;2023-07-20T00:55:45;97411.25;;;13.88;84.15
78986;BME280;68384;55.750;48.746;2023-07-20T00:56:48;97396.56;;;13.86;83.85
78986;BME280;68384;55.750;48.746;2023-07-20T00:57:52;97404.38;;;13.86;84.02
78986;BME280;68384;55.750;48.746;2023-07-20T00:58:57;97406.03;;;13.88;84.01
78986;BME280;68384;55.750;48.746;2023-07-20T01:00:03;97407.78;;;13.88;83.84
78986;BME280;68384;55.750;48.746;2023-07-20T01:01:07;97409.53;;;13.87;83.96
78986;BME280;68384;55.750;48.746;2023-07-20T01:02:11;97407.78;;;13.88;83.79
78986;BME280;68384;55.750;48.746;2023-07-20T01:03:15;97415.59;;;13.88;83.77
78986;BME280;68384;55.750;48.746;2023-07-20T01:04:19;97402.69;;;13.83;83.62
78986;BME280;68384;55.750;48.746;2023-07-20T01:05:31;97408.72;;;13.83;83.75
78986;BME280;68384;55.750;48.746;2023-07-20T01:07:06;97401.75;;;13.86;83.51
78986;BME280;68384;55.750;48.746;2023-07-20T01:08:25;97407.81;;;13.86;83.43
78986;BME280;68384;55.750;48.746;2023-07-20T01:09:36;97405.25;;;13.84;83.24
78986;BME280;68384;55.750;48.746;2023-07-20T01:10:46;97404.38;;;13.86;83.12
78986;BME280;68384;55.750;48.746;2023-07-20T01:11:59;97400.88;;;13.85;82.85
78986;BME280;68384;55.750;48.746;2023-07-20T01:13:09;97406.91;;;13.89;82.66
78986;BME280;68384;55.750;48.746;2023-07-20T01:14:15;97411.16;;;13.93;82.78
78986;BME280;68384;55.750;48.746;2023-07-20T01:15:19;97405.06;;;13.94;82.62
78986;BME280;68384;55.750;48.746;2023-07-20T01:16:23;97401.63;;;13.92;82.40
78986;BME280;68384;55.750;48.746;2023-07-20T01:17:27;97400.72;;;13.93;82.21
78986;BME280;68384;55.750;48.746;2023-07-20T01:18:31;97402.47;;;13.92;82.03
78986;BME280;68384;55.750;48.746;2023-07-20T01:19:34;97404.25;;;13.92;81.95
78986;BME280;68384;55.750;48.746;2023-07-20T01:20:38;97396.56;;;13.86;81.86
78986;BME280;68384;55.750;48.746;2023-07-20T01:21:45;97409.38;;;13.95;81.88
78986;BME280;68384;55.750;48.746;2023-07-20T01:23:06;97406.69;;;13.98;81.95
78986;BME280;68384;55.750;48.746;2023-07-20T01:24:24;97408.44;;;13.99;81.83
78986;BME280;68384;55.750;48.746;2023-07-20T01:25:50;97400.72;;;13.94;81.50
78986;BME280;68384;55.750;48.746;2023-07-20T01:27:26;97404.03;;;14.02;81.52
78986;BME280;68384;55.750;48.746;2023-07-20T01:28:42;97409.94;;;14.09;81.45
78986;BME280;68384;55.750;48.746;2023-07-20T01:30:07;97391.97;;;13.97;80.94
78986;BME280;68384;55.750;48.746;2023-07-20T01:31:17;97409.94;;;14.09;80.99
78986;BME280;68384;55.750;48.746;2023-07-20T01:32:23;97409.94;;;14.10;81.05
78986;BME280;68384;55.750;48.746;2023-07-20T01:33:30;97411.63;;;14.13;80.80
78986;BME280;68384;55.750;48.746;2023-07-20T01:34:35;97402.00;;;14.15;80.59
78986;BME280;68384;55.750;48.746;2023-07-20T01:35:54;97406.31;;;14.17;80.32
78986;BME280;68384;55.750;48.746;2023-07-20T01:36:59;97396.94;;;14.09;80.52
78986;BME280;68384;55.750;48.746;2023-07-20T01:38:04;97410.56;;;14.21;80.15
78986;BME280;68384;55.750;48.746;2023-07-20T01:39:09;97408.84;;;14.20;80.35
78986;BME280;68384;55.750;48.746;2023-07-20T01:40:13;97407.84;;;14.26;80.18
78986;BME280;68384;55.750;48.746;2023-07-20T01:41:17;97401.84;;;14.22;79.69
78986;BME280;68384;55.750;48.746;2023-07-20T01:42:22;97409.59;;;14.25;79.48
78986;BME280;68384;55.750;48.746;2023-07-20T01:43:25;97407.84;;;14.26;79.60
78986;BME280;68384;55.750;48.746;2023-07-20T01:44:29;97400.84;;;14.28;79.14
78986;BME280;68384;55.750;48.746;2023-07-20T01:45:32;97413.00;;;14.29;79.21
78986;BME280;68384;55.750;48.746;2023-07-20T01:46:38;97408.66;;;14.29;79.21
78986;BME280;68384;55.750;48.746;2023-07-20T01:47:41;97410.34;;;14.32;78.83
78986;BME280;68384;55.750;48.746;2023-07-20T01:48:44;97408.63;;;14.31;78.57
78986;BME280;68384;55.750;48.746;2023-07-20T01:49:48;97418.22;;;14.29;78.49
78986;BME280;68384;55.750;48.746;2023-07-20T01:50:51;97412.13;;;14.30;78.59
78986;BME280;68384;55.750;48.746;2023-07-20T01:51:56;97415.50;;;14.35;78.65
78986;BME280;68384;55.750;48.746;2023-07-20T01:52:58;97412.84;;;14.36;78.50
78986;BME280;68384;55.750;48.746;2023-07-20T01:54:03;97411.91;;;14.40;78.31
78986;BME280;68384;55.750;48.746;2023-07-20T01:55:06;97411.91;;;14.39;77.81
78986;BME280;68384;55.750;48.746;2023-07-20T01:56:09;97407.50;;;14.41;77.86
78986;BME280;68384;55.750;48.746;2023-07-20T01:57:14;97424.88;;;14.43;78.13
78986;BME280;68384;55.750;48.746;2023-07-20T01:58:18;97419.59;;;14.45;78.13
78986;BME280;68384;55.750;48.746;2023-07-20T01:59:22;97416.97;;;14.48;78.08
78986;BME280;68384;55.750;48.746;2023-07-20T02:00:25;97416.09;;;14.49;77.69
78986;BME280;68384;55.750;48.746;2023-07-20T02:01:28;97424.72;;;14.51;77.75
78986;BME280;68384;55.750;48.746;2023-07-20T02:02:33;97419.44;;;14.54;77.74
78986;BME280;68384;55.750;48.746;2023-07-20T02:03:37;97422.81;;;14.58;77.56
78986;BME280;68384;55.750;48.746;2023-07-20T02:04:39;97410.78;;;14.52;77.17
78986;BME280;68384;55.750;48.746;2023-07-20T02:05:43;97414.22;;;14.54;77.09
78986;BME280;68384;55.750;48.746;2023-07-20T02:06:46;97416.03;;;14.51;77.07
78986;BME280;68384;55.750;48.746;2023-07-20T02:07:50;97419.44;;;14.54;77.21
78986;BME280;68384;55.750;48.746;2023-07-20T02:08:55;97414.22;;;14.54;76.99
78986;BME280;68384;55.750;48.746;2023-07-20T02:09:59;97416.84;;;14.54;77.24
78986;BME280;68384;55.750;48.746;2023-07-20T02:11:01;97415.00;;;14.58;77.11
78986;BME280;68384;55.750;48.746;2023-07-20T02:12:07;97417.66;;;14.56;76.86
78986;BME280;68384;55.750;48.746;2023-07-20T02:13:10;97403.06;;;14.49;76.90
78986;BME280;68384;55.750;48.746;2023-07-20T02:14:14;97422.81;;;14.59;76.74
78986;BME280;68384;55.750;48.746;2023-07-20T02:15:17;97416.72;;;14.59;76.92
78986;BME280;68384;55.750;48.746;2023-07-20T02:16:21;97401.28;;;14.50;77.01
78986;BME280;68384;55.750;48.746;2023-07-20T02:17:25;97419.22;;;14.65;76.79
78986;BME280;68384;55.750;48.746;2023-07-20T02:18:30;97420.06;;;14.65;76.82
78986;BME280;68384;55.750;48.746;2023-07-20T02:19:33;97426.97;;;14.68;76.49
78986;BME280;68384;55.750;48.746;2023-07-20T02:20:37;97420.75;;;14.73;76.74
78986;BME280;68384;55.750;48.746;2023-07-20T02:21:40;97413.00;;;14.70;76.15
78986;BME280;68384;55.750;48.746;2023-07-20T02:22:43;97406.16;;;14.65;76.31
78986;BME280;68384;55.750;48.746;2023-07-20T02:23:46;97421.50;;;14.77;75.87
78986;BME280;68384;55.750;48.746;2023-07-20T02:24:50;97431.00;;;14.81;75.89
78986;BME280;68384;55.750;48.746;2023-07-20T02:25:53;97422.34;;;14.79;75.50
78986;BME280;68384;55.750;48.746;2023-07-20T02:26:57;97425.78;;;14.81;75.64
78986;BME280;68384;55.750;48.746;2023-07-20T02:28:00;97426.59;;;14.84;75.91
78986;BME280;68384;55.750;48.746;2023-07-20T02:29:04;97425.66;;;14.85;75.59
78986;BME280;68384;55.750;48.746;2023-07-20T02:30:08;97431.69;;;14.87;75.27
78986;BME280;68384;55.750;48.746;2023-07-20T02:31:13;97428.19;;;14.90;75.01
78986;BME280;68384;55.750;48.746;2023-07-20T02:32:15;97422.06;;;14.91;75.09
78986;BME280;68384;55.750;48.746;2023-07-20T02:33:19;97428.81;;;14.99;75.22
78986;BME280;68384;55.750;48.746;2023-07-20T02:34:24;97434.97;;;14.97;75.24
78986;BME280;68384;55.750;48.746;2023-07-20T02:35:28;97414.03;;;15.00;75.02
78986;BME280;68384;55.750;48.746;2023-07-20T02:36:31;97418.97;;;15.11;74.46
78986;BME280;68384;55.750;48.746;2023-07-20T02:37:36;97428.34;;;15.18;74.32
78986;BME280;68384;55.750;48.746;2023-07-20T02:38:39;97434.34;;;15.23;73.72
78986;BME280;68384;55.750;48.746;2023-07-20T02:39:43;97431.88;;;15.17;74.15
78986;BME280;68384;55.750;48.746;2023-07-20T02:40:46;97422.19;;;15.22;73.91
78986;BME280;68384;55.750;48.746;2023-07-20T02:41:50;97429.16;;;15.21;73.72
78986;BME280;68384;55.750;48.746;2023-07-20T02:42:53;97430.00;;;15.22;73.37
78986;BME280;68384;55.750;48.746;2023-07-20T02:43:57;97424.59;;;15.29;73.12
78986;BME280;68384;55.750;48.746;2023-07-20T02:44:59;97438.44;;;15.33;72.70
78986;BME280;68384;55.750;48.746;2023-07-20T02:46:03;97439.09;;;15.41;72.76
78986;BME280;68384;55.750;48.746;2023-07-20T02:47:07;97438.28;;;15.39;72.53
78986;BME280;68384;55.750;48.746;2023-07-20T02:48:11;97434.66;;;15.44;72.75
78986;BME280;68384;55.750;48.746;2023-07-20T02:49:15;97446.00;;;15.43;72.45
78986;BME280;68384;55.750;48.746;2023-07-20T02:50:21;97446.84;;;15.44;71.91
78986;BME280;68384;55.750;48.746;2023-07-20T02:51:24;97440.19;;;15.32;72.31
78986;BME280;68384;55.750;48.746;2023-07-20T02:52:28;97440.06;;;15.37;72.62
78986;BME280;68384;55.750;48.746;2023-07-20T02:53:32;97447.94;;;15.35;72.58
78986;BME280;68384;55.750;48.746;2023-07-20T02:54:36;97444.53;;;15.33;72.14
78986;BME280;68384;55.750;48.746;2023-07-20T02:55:39;97446.94;;;15.39;72.69
78986;BME280;68384;55.750;48.746;2023-07-20T02:56:43;97440.22;;;15.31;71.96
78986;BME280;68384;55.750;48.746;2023-07-20T02:57:46;97435.00;;;15.31;71.87
78986;BME280;68384;55.750;48.746;2023-07-20T02:58:50;97435.00;;;15.31;72.07
78986;BME280;68384;55.750;48.746;2023-07-20T02:59:52;97433.06;;;15.39;71.66
78986;BME280;68384;55.750;48.746;2023-07-20T03:00:57;97442.53;;;15.43;71.66
78986;BME280;68384;55.750;48.746;2023-07-20T03:02:00;97443.53;;;15.37;71.46
78986;BME280;68384;55.750;48.746;2023-07-20T03:03:04;97448.81;;;15.36;71.88
78986;BME280;68384;55.750;48.746;2023-07-20T03:04:12;97452.16;;;15.41;71.95
78986;BME280;68384;55.750;48.746;2023-07-20T03:05:16;97446.84;;;15.44;71.63
78986;BME280;68384;55.750;48.746;2023-07-20T03:06:20;97451.16;;;15.45;71.16
78986;BME280;68384;55.750;48.746;2023-07-20T03:07:26;97437.28;;;15.44;71.18
78986;BME280;68384;55.750;48.746;2023-07-20T03:08:29;97449.47;;;15.44;71.11
78986;BME280;68384;55.750;48.746;2023-07-20T03:09:33;97454.91;;;15.35;70.73
78986;BME280;68384;55.750;48.746;2023-07-20T03:10:39;97464.41;;;15.39;71.32
78986;BME280;68384;55.750;48.746;2023-07-20T03:11:44;97456.38;;;15.46;70.61
78986;BME280;68384;55.750;48.746;2023-07-20T03:12:47;97461.53;;;15.48;70.66
78986;BME280;68384;55.750;48.746;2023-07-20T03:13:51;97455.44;;;15.49;70.79
78986;BME280;68384;55.750;48.746;2023-07-20T03:14:54;97454.53;;;15.50;70.57
78986;BME280;68384;55.750;48.746;2023-07-20T03:16:00;97474.41;;;15.57;70.38
78986;BME280;68384;55.750;48.746;2023-07-20T03:17:04;97467.31;;;15.62;70.51
78986;BME280;68384;55.750;48.746;2023-07-20T03:18:08;97469.69;;;15.71;70.08
78986;BME280;68384;55.750;48.746;2023-07-20T03:19:11;97473.25;;;15.69;70.09
78986;BME280;68384;55.750;48.746;2023-07-20T03:20:16;97464.47;;;15.70;69.74
78986;BME280;68384;55.750;48.746;2023-07-20T03:21:20;97485.66;;;15.59;69.99
78986;BME280;68384;55.750;48.746;2023-07-20T03:22:24;97487.16;;;15.69;69.99
78986;BME280;68384;55.750;48.746;2023-07-20T03:23:27;97474.94;;;15.70;69.82
78986;BME280;68384;55.750;48.746;2023-07-20T03:24:31;97485.28;;;15.74;69.59
78986;BME280;68384;55.750;48.746;2023-07-20T03:25:34;97485.22;;;15.76;69.94
78986;BME280;68384;55.750;48.746;2023-07-20T03:26:39;97480.06;;;15.74;69.79
78986;BME280;68384;55.750;48.746;2023-07-20T03:27:43;97477.41;;;15.76;69.43
78986;BME280;68384;55.750;48.746;2023-07-20T03:28:46;97497.47;;;15.74;69.89
78986;BME280;68384;55.750;48.746;2023-07-20T03:29:49;97483.53;;;15.75;69.78
78986;BME280;68384;55.750;48.746;2023-07-20T03:30:55;97486.03;;;15.79;70.03
78986;BME280;68384;55.750;48.746;2023-07-20T03:32:01;97484.06;;;15.87;69.39
78986;BME280;68384;55.750;48.746;2023-07-20T03:33:04;97474.75;;;15.77;69.12
78986;BME280;68384;55.750;48.746;2023-07-20T03:34:08;97496.38;;;15.82;69.05
78986;BME280;68384;55.750;48.746;2023-07-20T03:35:11;97485.31;;;15.73;69.24
78986;BME280;68384;55.750;48.746;2023-07-20T03:36:15;97489.56;;;15.77;69.46
78986;BME280;68384;55.750;48.746;2023-07-20T03:37:20;97486.16;;;15.73;69.47
78986;BME280;68384;55.750;48.746;2023-07-20T03:38:24;97481.59;;;15.81;69.64
78986;BME280;68384;55.750;48.746;2023-07-20T03:39:29;97491.16;;;15.82;69.18
78986;BME280;68384;55.750;48.746;2023-07-20T03:40:32;97481.75;;;15.75;69.21
78986;BME280;68384;55.750;48.746;2023-07-20T03:41:35;97484.56;;;15.68;69.55
78986;BME280;68384;55.750;48.746;2023-07-20T03:42:39;97483.44;;;15.78;69.27
78986;BME280;68384;55.750;48.746;2023-07-20T03:43:43;97487.69;;;15.82;69.69
78986;BME280;68384;55.750;48.746;2023-07-20T03:44:46;97486.69;;;15.86;69.32
78986;BME280;68384;55.750;48.746;2023-07-20T03:45:50;97480.75;;;15.81;69.48
78986;BME280;68384;55.750;48.746;2023-07-20T03:46:53;97478.97;;;15.83;69.69
78986;BME280;68384;55.750;48.746;2023-07-20T03:47:58;97480.88;;;15.76;69.41
78986;BME280;68384;55.750;48.746;2023-07-20T03:49:01;97473.84;;;15.78;69.00
78986;BME280;68384;55.750;48.746;2023-07-20T03:50:07;97481.81;;;15.74;68.77
78986;BME280;68384;55.750;48.746;2023-07-20T03:51:12;97480.75;;;15.81;68.68
78986;BME280;68384;55.750;48.746;2023-07-20T03:52:16;97481.59;;;15.81;68.64
78986;BME280;68384;55.750;48.746;2023-07-20T03:53:21;97485.88;;;15.85;68.32
78986;BME280;68384;55.750;48.746;2023-07-20T03:54:24;97476.31;;;15.84;68.24
78986;BME280;68384;55.750;48.746;2023-07-20T03:55:27;97480.72;;;15.82;68.61
78986;BME280;68384;55.750;48.746;2023-07-20T03:56:31;97486.59;;;15.90;68.97
78986;BME280;68384;55.750;48.746;2023-07-20T03:57:37;97489.22;;;15.90;68.41
78986;BME280;68384;55.750;48.746;2023-07-20T03:58:41;97477.84;;;15.91;68.91
78986;BME280;68384;55.750;48.746;2023-07-20T03:59:45;97485.53;;;15.97;68.67
78986;BME280;68384;55.750;48.746;2023-07-20T04:00:50;97479.56;;;15.92;69.17
78986;BME280;68384;55.750;48.746;2023-07-20T04:01:53;97481.88;;;16.04;68.81
78986;BME280;68384;55.750;48.746;2023-07-20T04:02:57;97474.91;;;16.03;67.66
78986;BME280;68384;55.750;48.746;2023-07-20T04:04:01;97484.47;;;16.04;68.34
78986;BME280;68384;55.750;48.746;2023-07-20T04:05:05;97485.19;;;16.09;68.36
78986;BME280;68384;55.750;48.746;2023-07-20T04:06:08;97480.88;;;16.08;67.80
78986;BME280;68384;55.750;48.746;2023-07-20T04:07:12;97488.59;;;16.13;68.13
78986;BME280;68384;55.750;48.746;2023-07-20T04:08:17;97477.94;;;16.19;68.11
78986;BME280;68384;55.750;48.746;2023-07-20T04:09:22;97478.69;;;16.24;67.74
78986;BME280;68384;55.750;48.746;2023-07-20T04:10:25;97485.59;;;16.27;67.41
78986;BME280;68384;55.750;48.746;2023-07-20T04:11:29;97484.69;;;16.28;66.92
78986;BME280;68384;55.750;48.746;2023-07-20T04:12:32;97481.03;;;16.33;67.24
78986;BME280;68384;55.750;48.746;2023-07-20T04:13:36;97498.38;;;16.37;66.75
78986;BME280;68384;55.750;48.746;2023-07-20T04:14:39;97483.50;;;16.38;66.86
78986;BME280;68384;55.750;48.746;2023-07-20T04:15:43;97487.84;;;16.40;66.29
78986;BME280;68384;55.750;48.746;2023-07-20T04:16:46;97478.69;;;16.55;66.08
78986;BME280;68384;55.750;48.746;2023-07-20T04:17:50;97499.53;;;16.58;66.16
78986;BME280;68384;55.750;48.746;2023-07-20T04:18:54;97484.72;;;16.58;65.95
78986;BME280;68384;55.750;48.746;2023-07-20T04:19:58;97495.09;;;16.61;65.92
78986;BME280;68384;55.750;48.746;2023-07-20T04:21:01;97491.84;;;16.53;65.88
78986;BME280;68384;55.750;48.746;2023-07-20T04:22:06;97482.03;;;16.60;65.61
78986;BME280;68384;55.750;48.746;2023-07-20T04:23:09;97486.19;;;16.67;65.25
78986;BME280;68384;55.750;48.746;2023-07-20T04:24:13;97491.34;;;16.70;65.13
78986;BME280;68384;55.750;48.746;2023-07-20T04:25:18;97487.81;;;16.71;65.19
78986;BME280;68384;55.750;48.746;2023-07-20T04:26:22;97490.44;;;16.71;65.28
78986;BME280;68384;55.750;48.746;2023-07-20T04:27:25;97490.63;;;16.65;65.40
78986;BME280;68384;55.750;48.746;2023-07-20T04:28:29;97498.41;;;16.66;65.55
78986;BME280;68384;55.750;48.746;2023-07-20T04:29:33;97487.09;;;16.66;64.97
78986;BME280;68384;55.750;48.746;2023-07-20T04:30:37;97495.81;;;16.66;64.90
78986;BME280;68384;55.750;48.746;2023-07-20T04:31:42;97488.72;;;16.70;64.82
78986;BME280;68384;55.750;48.746;2023-07-20T04:32:46;97491.19;;;16.74;64.74
78986;BME280;68384;55.750;48.746;2023-07-20T04:33:49;97489.28;;;16.80;64.89
78986;BME280;68384;55.750;48.746;2023-07-20T04:34:53;97485.06;;;16.75;65.03
78986;BME280;68384;55.750;48.746;2023-07-20T04:35:56;97491.97;;;16.78;65.12
78986;BME280;68384;55.750;48.746;2023-07-20T04:37:08;97489.28;;;16.80;64.78
78986;BME280;68384;55.750;48.746;2023-07-20T04:38:11;97487.47;;;16.82;64.75
78986;BME280;68384;55.750;48.746;2023-07-20T04:39:15;97481.50;;;16.78;64.58
78986;BME280;68384;55.750;48.746;2023-07-20T04:40:37;97483.88;;;16.86;64.65
78986;BME280;68384;55.750;48.746;2023-07-20T04:41:41;97486.66;;;16.81;65.07
78986;BME280;68384;55.750;48.746;2023-07-20T04:42:43;97481.34;;;16.83;64.91
78986;BME280;68384;55.750;48.746;2023-07-20T04:43:47;97467.38;;;16.84;64.76
78986;BME280;68384;55.750;48.746;2023-07-20T04:44:57;97476.91;;;16.86;64.22
78986;BME280;68384;55.750;48.746;2023-07-20T04:46:01;97483.78;;;16.89;64.32
78986;BME280;68384;55.750;48.746;2023-07-20T04:47:07;97478.13;;;17.02;64.05
78986;BME280;68384;55.750;48.746;2023-07-20T04:48:14;97477.03;;;17.09;64.01
78986;BME280;68384;55.750;48.746;2023-07-20T04:49:26;97478.59;;;17.15;63.50
78986;BME280;68384;55.750;48.746;2023-07-20T04:50:31;97476.69;;;17.20;63.44
78986;BME280;68384;55.750;48.746;2023-07-20T04:51:33;97473.25;;;17.19;63.39
78986;BME280;68384;55.750;48.746;2023-07-20T04:52:37;97491.31;;;17.27;63.60
78986;BME280;68384;55.750;48.746;2023-07-20T04:53:49;97485.88;;;17.33;63.10
78986;BME280;68384;55.750;48.746;2023-07-20T04:54:53;97478.31;;;17.24;63.02
78986;BME280;68384;55.750;48.746;2023-07-20T04:55:57;97480.88;;;17.25;62.30
78986;BME280;68384;55.750;48.746;2023-07-20T04:57:01;97479.78;;;17.32;61.95
78986;BME280;68384;55.750;48.746;2023-07-20T04:58:05;97481.44;;;17.35;62.01
78986;BME280;68384;55.750;48.746;2023-07-20T04:59:11;97493.44;;;17.42;61.63
78986;BME280;68384;55.750;48.746;2023-07-20T05:00:14;97481.19;;;17.43;61.62
78986;BME280;68384;55.750;48.746;2023-07-20T05:01:19;97485.72;;;17.38;61.46
78986;BME280;68384;55.750;48.746;2023-07-20T05:02:22;97489.94;;;17.42;61.70
78986;BME280;68384;55.750;48.746;2023-07-20T05:03:26;97480.50;;;17.38;61.08
78986;BME280;68384;55.750;48.746;2023-07-20T05:04:29;97496.97;;;17.41;60.62
78986;BME280;68384;55.750;48.746;2023-07-20T05:05:40;97491.63;;;17.44;61.21
78986;BME280;68384;55.750;48.746;2023-07-20T05:06:45;97497.78;;;17.43;60.71
78986;BME280;68384;55.750;48.746;2023-07-20T05:07:48;97489.78;;;17.48;60.60
78986;BME280;68384;55.750;48.746;2023-07-20T05:08:51;97487.97;;;17.50;60.54
78986;BME280;68384;55.750;48.746;2023-07-20T05:09:55;97487.88;;;17.53;59.84
78986;BME280;68384;55.750;48.746;2023-07-20T05:11:01;97495.69;;;17.54;60.40
78986;BME280;68384;55.750;48.746;2023-07-20T05:12:06;97495.72;;;17.53;60.15
78986;BME280;68384;55.750;48.746;2023-07-20T05:13:10;97494.56;;;17.61;60.47
78986;BME280;68384;55.750;48.746;2023-07-20T05:14:14;97494.44;;;17.66;59.87
78986;BME280;68384;55.750;48.746;2023-07-20T05:15:17;97499.44;;;17.72;59.81
78986;BME280;68384;55.750;48.746;2023-07-20T05:16:21;97494.94;;;17.77;59.90
78986;BME280;68384;55.750;48.746;2023-07-20T05:17:24;97498.66;;;17.70;58.89
78986;BME280;68384;55.750;48.746;2023-07-20T05:18:28;97494.88;;;17.78;59.33
78986;BME280;68384;55.750;48.746;2023-07-20T05:19:31;97503.53;;;17.80;58.72
78986;BME280;68384;55.750;48.746;2023-07-20T05:20:35;97492.94;;;17.83;58.39
78986;BME280;68384;55.750;48.746;2023-07-20T05:21:39;97490.97;;;17.90;58.45
78986;BME280;68384;55.750;48.746;2023-07-20T05:22:44;97491.22;;;17.82;58.26
78986;BME280;68384;55.750;48.746;2023-07-20T05:23:47;97495.28;;;17.91;58.09
78986;BME280;68384;55.750;48.746;2023-07-20T05:24:50;97500.53;;;17.91;58.43
78986;BME280;68384;55.750;48.746;2023-07-20T05:25:56;97505.69;;;17.94;58.01
78986;BME280;68384;55.750;48.746;2023-07-20T05:27:02;97496.03;;;17.96;58.58
78986;BME280;68384;55.750;48.746;2023-07-20T05:28:06;97492.53;;;17.96;58.31
78986;BME280;68384;55.750;48.746;2023-07-20T05:29:09;97508.59;;;18.11;58.71
78986;BME280;68384;55.750;48.746;2023-07-20T05:30:12;97506.66;;;18.16;58.70
78986;BME280;68384;55.750;48.746;2023-07-20T05:31:16;97503.84;;;18.21;58.81
78986;BME280;68384;55.750;48.746;2023-07-20T05:32:19;97500.31;;;18.23;58.11
78986;BME280;68384;55.750;48.746;2023-07-20T05:33:23;97505.16;;;18.34;57.87
78986;BME280;68384;55.750;48.746;2023-07-20T05:34:26;97511.19;;;18.36;57.05
78986;BME280;68384;55.750;48.746;2023-07-20T05:35:30;97506.81;;;18.36;57.20
78986;BME280;68384;55.750;48.746;2023-07-20T05:36:33;97497.69;;;18.23;57.10
78986;BME280;68384;55.750;48.746;2023-07-20T05:37:37;97505.88;;;18.37;56.97
78986;BME280;68384;55.750;48.746;2023-07-20T05:38:40;97522.59;;;18.35;55.58